createdAt,value
2023-03-08T00:04:39.110Z,100252.63
2023-03-08T00:09:37.224Z,100254.63
2023-03-08T00:14:33.835Z,100252.28
2023-03-08T00:19:30.507Z,100262.97
2023-03-08T00:24:27.856Z,100265.44
2023-03-08T00:29:24.479Z,100269.50
2023-03-08T00:34:21.026Z,100262.53
2023-03-08T00:39:17.564Z,100268.38
2023-03-08T00:44:14.821Z,100270.91
2023-03-08T00:49:12.954Z,100267.75
2023-03-08T00:54:09.589Z,100271.53
2023-03-08T00:59:06.432Z,100271.00
2023-03-08T01:04:04.437Z,100264.44
2023-03-08T01:09:01.197Z,100260.94
2023-03-08T01:13:57.896Z,100266.97
2023-03-08T01:18:54.889Z,100261.38
2023-03-08T01:23:52.646Z,100244.00
2023-03-08T01:28:49.907Z,100263.09
2023-03-08T01:33:46.720Z,100263.88
2023-03-08T01:38:45.243Z,100268.59
2023-03-08T01:43:42.746Z,100241.66
2023-03-08T01:48:44.222Z,100250.69
2023-03-08T01:53:46.217Z,100253.09
2023-03-08T01:58:44.960Z,100248.59
2023-03-08T02:03:41.597Z,100241.28
2023-03-08T02:08:39.027Z,100251.63
2023-03-08T02:13:36.410Z,100247.06
2023-03-08T02:18:34.485Z,100243.84
2023-03-08T02:23:31.751Z,100243.97
2023-03-08T02:28:28.537Z,100225.63
2023-03-08T02:33:25.125Z,100228.56
2023-03-08T02:38:22.073Z,100227.59
2023-03-08T02:43:19.709Z,100239.28
2023-03-08T02:48:16.897Z,100238.66
2023-03-08T02:53:13.655Z,100239.47
2023-03-08T02:58:10.623Z,100239.38
2023-03-08T03:03:08.116Z,100240.69
2023-03-08T03:08:04.718Z,100243.13
2023-03-08T03:13:01.411Z,100250.22
2023-03-08T03:18:00.459Z,100248.81
2023-03-08T03:22:58.793Z,100252.84
2023-03-08T03:28:04.971Z,100256.47
2023-03-08T03:33:02.291Z,100254.78
2023-03-08T03:38:02.419Z,100259.69
2023-03-08T03:42:59.234Z,100266.44
2023-03-08T03:47:55.876Z,100271.22
2023-03-08T03:52:53.047Z,100279.72
2023-03-08T03:57:50.556Z,100279.41
2023-03-08T04:02:48.187Z,100283.31
2023-03-08T04:07:48.062Z,100282.22
2023-03-08T04:12:47.970Z,100295.50
2023-03-08T04:17:47.426Z,100297.56
2023-03-08T04:22:44.447Z,100297.06
2023-03-08T04:27:56.584Z,100299.25
2023-03-08T04:32:54.228Z,100298.47
2023-03-08T04:37:55.150Z,100299.06
2023-03-08T04:42:54.902Z,100302.53
2023-03-08T04:47:57.424Z,100307.69
2023-03-08T04:52:54.537Z,100308.16
2023-03-08T04:57:51.447Z,100314.06
2023-03-08T05:02:48.369Z,100322.91
2023-03-08T05:07:48.895Z,100327.16
2023-03-08T05:12:45.527Z,100331.41
2023-03-08T05:17:42.169Z,100335.47
2023-03-08T05:22:56.704Z,100343.16
2023-03-08T05:27:59.431Z,100351.34
2023-03-08T05:32:56.399Z,100357.63
2023-03-08T05:37:53.229Z,100370.81
2023-03-08T05:42:50.185Z,100366.50
2023-03-08T05:47:48.778Z,100379.13
2023-03-08T05:52:46.822Z,100375.38
2023-03-08T05:57:50.070Z,100386.81
2023-03-08T06:02:47.288Z,100385.91
2023-03-08T06:07:45.589Z,100387.44
2023-03-08T06:12:44.226Z,100393.63
2023-03-08T06:17:44.242Z,100402.75
2023-03-08T06:22:43.703Z,100415.16
2023-03-08T06:27:43.935Z,100419.94
2023-03-08T06:32:52.722Z,100412.63
2023-03-08T06:37:49.986Z,100426.47
2023-03-08T06:42:47.648Z,100435.13
2023-03-08T06:47:47.768Z,100449.47
2023-03-08T06:52:47.318Z,100459.34
2023-03-08T06:57:47.687Z,100457.31
2023-03-08T07:02:44.546Z,100461.28
2023-03-08T07:07:41.584Z,100463.66
2023-03-08T07:12:42.953Z,100468.97
2023-03-08T07:17:40.950Z,100471.38
2023-03-08T07:22:40.183Z,100478.25
2023-03-08T07:27:36.874Z,100469.16
2023-03-08T07:32:33.877Z,100485.25
2023-03-08T07:37:31.608Z,100484.09
2023-03-08T07:42:28.523Z,100476.44
2023-03-08T07:47:32.308Z,100487.47
2023-03-08T07:52:29.616Z,100487.88
2023-03-08T07:57:27.049Z,100485.88
2023-03-08T08:02:24.089Z,100477.84
2023-03-08T08:07:22.211Z,100487.28
2023-03-08T08:12:19.153Z,100487.38
2023-03-08T08:17:25.501Z,100489.72
2023-03-08T08:22:22.373Z,100493.72
2023-03-08T08:27:19.294Z,100498.06
2023-03-08T08:32:16.848Z,100495.50
2023-03-08T08:37:13.692Z,100487.19
2023-03-08T08:42:10.754Z,100496.91
2023-03-08T08:47:08.864Z,100498.25
2023-03-08T08:52:08.846Z,100479.06
2023-03-08T08:57:05.882Z,100488.31
2023-03-08T09:02:05.836Z,100498.97
2023-03-08T09:07:06.994Z,100489.44
2023-03-08T09:12:07.958Z,100484.69
2023-03-08T09:17:06.120Z,100476.53
2023-03-08T09:22:03.092Z,100476.00
2023-03-08T09:27:00.225Z,100483.66
2023-03-08T09:32:00.325Z,100488.94
2023-03-08T09:36:57.438Z,100479.56
2023-03-08T09:41:56.684Z,100467.69
2023-03-08T09:46:57.331Z,100470.31
2023-03-08T09:51:59.244Z,100461.66
2023-03-08T09:56:56.440Z,100459.19
2023-03-08T10:01:58.761Z,100459.13
2023-03-08T10:07:05.693Z,100467.53
2023-03-08T10:12:13.482Z,100455.38
2023-03-08T10:17:13.094Z,100479.25
2023-03-08T10:22:23.640Z,100464.31
2023-03-08T10:27:22.051Z,100476.94
2023-03-08T10:32:19.093Z,100470.44
2023-03-08T10:37:16.842Z,100478.91
2023-03-08T10:42:15.078Z,100474.72
2023-03-08T10:47:22.319Z,100463.78
2023-03-08T10:52:27.467Z,100462.97
2023-03-08T10:57:27.697Z,100452.34
2023-03-08T11:02:26.346Z,100455.94
2023-03-08T11:07:27.588Z,100442.19
2023-03-08T11:12:36.773Z,100436.75
2023-03-08T11:17:38.902Z,100426.13
2023-03-08T11:22:40.932Z,100423.66
2023-03-08T11:27:58.153Z,100414.09
2023-03-08T11:33:02.732Z,100415.66
2023-03-08T11:38:02.511Z,100410.47
2023-03-08T11:43:16.113Z,100405.75
2023-03-08T11:48:27.786Z,100400.56
2023-03-08T11:53:36.494Z,100407.16
2023-03-08T11:58:36.329Z,100396.78
2023-03-08T12:03:53.926Z,100388.19
2023-03-08T12:09:00.546Z,100390.34
2023-03-08T12:14:03.605Z,100394.47
2023-03-08T12:19:10.762Z,100378.59
2023-03-08T12:24:24.731Z,100385.13
2023-03-08T12:29:26.804Z,100380.78
2023-03-08T12:34:30.144Z,100385.19
2023-03-08T12:39:32.189Z,100367.34
2023-03-08T12:44:31.408Z,100354.06
2023-03-08T12:49:30.474Z,100372.75
2023-03-08T12:54:31.716Z,100374.88
2023-03-08T12:59:35.825Z,100378.03
2023-03-08T13:04:40.821Z,100377.28
2023-03-08T13:09:53.196Z,100371.66
2023-03-08T13:14:59.805Z,100381.72
2023-03-08T13:19:58.458Z,100373.63
2023-03-08T13:24:57.997Z,100368.00
2023-03-08T13:29:56.296Z,100363.72
2023-03-08T13:34:58.414Z,100362.41
2023-03-08T13:39:58.338Z,100357.09
2023-03-08T13:45:06.693Z,100368.63
2023-03-08T13:50:04.956Z,100363.72
2023-03-08T13:55:04.390Z,100360.78
2023-03-08T14:00:03.116Z,100349.09
2023-03-08T14:05:01.780Z,100365.66
2023-03-08T14:10:02.997Z,100355.38
2023-03-08T14:15:01.264Z,100355.66
2023-03-08T14:19:59.858Z,100346.25
2023-03-08T14:25:02.047Z,100336.72
2023-03-08T14:30:02.174Z,100337.47
2023-03-08T14:35:06.564Z,100321.72
2023-03-08T14:40:20.980Z,100328.75
2023-03-08T14:45:20.790Z,100324.44
2023-03-08T14:50:20.357Z,100320.94
2023-03-08T14:55:22.465Z,100314.25
2023-03-08T15:00:19.970Z,100326.41
2023-03-08T15:05:28.493Z,100325.03
2023-03-08T15:10:34.154Z,100323.84
2023-03-08T15:15:31.355Z,100327.03
2023-03-08T15:20:28.292Z,100332.97
2023-03-08T15:25:26.004Z,100330.84
2023-03-08T15:30:25.375Z,100328.44
2023-03-08T15:35:25.787Z,100324.59
2023-03-08T15:40:24.367Z,100329.34
2023-03-08T15:45:22.855Z,100335.69
2023-03-08T15:50:20.214Z,100322.75
2023-03-08T15:55:21.557Z,100329.00
2023-03-08T16:00:20.165Z,100331.78
2023-03-08T16:05:19.190Z,100326.66
2023-03-08T16:10:21.372Z,100333.88
2023-03-08T16:15:18.891Z,100328.75
2023-03-08T16:20:20.060Z,100326.22
2023-03-08T16:25:22.426Z,100316.78
2023-03-08T16:30:23.280Z,100328.44
2023-03-08T16:35:20.233Z,100315.16
2023-03-08T16:40:18.209Z,100332.97
2023-03-08T16:45:15.172Z,100344.13
2023-03-08T16:50:12.377Z,100347.91
2023-03-08T16:55:09.157Z,100358.84
2023-03-08T17:00:12.134Z,100357.25
2023-03-08T17:05:10.558Z,100356.69
2023-03-08T17:10:08.035Z,100357.72
2023-03-08T17:15:09.642Z,100363.06
2023-03-08T17:20:08.346Z,100367.63
2023-03-08T17:25:05.594Z,100356.97
2023-03-08T17:30:03.261Z,100373.31
2023-03-08T17:35:02.337Z,100382.47
2023-03-08T17:39:59.987Z,100383.72
2023-03-08T17:44:57.516Z,100374.66
2023-03-08T17:49:54.226Z,100379.69
2023-03-08T17:54:53.896Z,100388.66
2023-03-08T17:59:52.429Z,100388.84
2023-03-08T18:04:51.336Z,100400.81
2023-03-08T18:09:50.321Z,100413.09
2023-03-08T18:14:52.141Z,100417.53
2023-03-08T18:20:01.353Z,100423.31
2023-03-08T18:25:02.160Z,100426.41
2023-03-08T18:29:59.423Z,100419.94
2023-03-08T18:34:56.441Z,100422.75
2023-03-08T18:39:54.139Z,100424.84
2023-03-08T18:44:50.961Z,100413.00
2023-03-08T18:49:47.917Z,100415.03
2023-03-08T18:54:44.884Z,100419.81
2023-03-08T18:59:42.312Z,100403.03
2023-03-08T19:04:39.201Z,100408.97
2023-03-08T19:09:35.882Z,100411.63
2023-03-08T19:14:32.756Z,100408.31
2023-03-08T19:19:33.247Z,100406.34
2023-03-08T19:24:31.278Z,100408.94
2023-03-08T19:29:28.874Z,100401.81
2023-03-08T19:34:26.857Z,100408.03
2023-03-08T19:39:27.029Z,100409.34
2023-03-08T19:44:23.750Z,100409.94
2023-03-08T19:49:22.400Z,100406.50
2023-03-08T19:54:19.578Z,100408.22
2023-03-08T19:59:17.280Z,100409.91
2023-03-08T20:04:14.035Z,100412.09
2023-03-08T20:09:11.855Z,100406.53
2023-03-08T20:14:08.524Z,100409.84
2023-03-08T20:19:05.954Z,100406.63
2023-03-08T20:24:03.483Z,100390.84
2023-03-08T20:29:00.474Z,100411.69
2023-03-08T20:33:57.614Z,100420.63
2023-03-08T20:38:58.104Z,100422.09
2023-03-08T20:43:55.296Z,100417.66
2023-03-08T20:48:52.166Z,100408.44
2023-03-08T20:53:49.564Z,100406.59
2023-03-08T20:58:46.999Z,100404.41
2023-03-08T21:03:44.090Z,100407.78
2023-03-08T21:08:40.898Z,100408.53
2023-03-08T21:13:37.719Z,100416.72
2023-03-08T21:18:35.031Z,100408.91
2023-03-08T21:23:31.691Z,100416.72
2023-03-08T21:28:28.540Z,100391.56
2023-03-08T21:33:25.367Z,100395.88
2023-03-08T21:38:24.734Z,100393.47
2023-03-08T21:43:24.752Z,100386.66
2023-03-08T21:48:28.842Z,100367.31
2023-03-08T21:53:26.379Z,100385.41
2023-03-08T21:58:23.574Z,100387.59
2023-03-08T22:03:20.393Z,100388.13
2023-03-08T22:08:17.153Z,100394.06
2023-03-08T22:13:14.610Z,100391.81
2023-03-08T22:18:11.293Z,100389.38
2023-03-08T22:23:07.942Z,100391.91
2023-03-08T22:28:04.765Z,100392.13
2023-03-08T22:33:02.175Z,100385.50
2023-03-08T22:37:59.341Z,100371.94
2023-03-08T22:42:56.050Z,100384.28
2023-03-08T22:47:54.096Z,100388.53
2023-03-08T22:52:51.582Z,100382.25
2023-03-08T22:57:51.194Z,100381.34
2023-03-08T23:02:48.035Z,100381.41
2023-03-08T23:07:45.050Z,100379.03
2023-03-08T23:12:42.706Z,100381.25
2023-03-08T23:17:39.743Z,100378.63
2023-03-08T23:22:36.406Z,100389.75
2023-03-08T23:27:33.107Z,100396.66
2023-03-08T23:32:30.643Z,100398.47
2023-03-08T23:37:27.500Z,100387.50
2023-03-08T23:42:25.507Z,100388.41
2023-03-08T23:47:24.670Z,100387.34
2023-03-08T23:52:22.185Z,100386.50
2023-03-08T23:57:19.087Z,100371.50
